createdAt,value
2018-04-07T00:01:15.687Z,57.60
2018-04-07T00:03:43.243Z,57.60
2018-04-07T00:06:10.788Z,57.80
2018-04-07T00:08:38.326Z,57.80
2018-04-07T00:11:05.930Z,57.80
2018-04-07T00:13:33.494Z,57.90
2018-04-07T00:16:01.070Z,58.60
2018-04-07T00:18:29.570Z,57.90
2018-04-07T00:20:57.910Z,58.20
2018-04-07T00:23:26.953Z,58.20
2018-04-07T00:25:54.503Z,58.10
2018-04-07T00:28:22.045Z,58.30
2018-04-07T00:30:49.596Z,58.40
2018-04-07T00:33:17.110Z,58.90
2018-04-07T00:35:44.667Z,59.00
2018-04-07T00:38:12.215Z,59.00
2018-04-07T00:40:39.767Z,59.20
2018-04-07T00:43:07.314Z,59.60
2018-04-07T00:45:34.853Z,59.70
2018-04-07T00:48:02.403Z,60.00
2018-04-07T00:50:29.936Z,60.90
2018-04-07T00:52:58.255Z,60.40
2018-04-07T00:55:25.794Z,60.50
2018-04-07T00:57:53.354Z,60.20
2018-04-07T01:00:21.677Z,60.20
2018-04-07T01:02:49.223Z,60.20
2018-04-07T01:05:16.755Z,60.20
2018-04-07T01:07:44.296Z,60.30
2018-04-07T01:10:11.824Z,60.40
2018-04-07T01:12:39.527Z,60.60
2018-04-07T01:15:07.045Z,60.70
2018-04-07T01:17:34.593Z,61.00
2018-04-07T01:20:02.122Z,61.00
2018-04-07T01:22:30.353Z,61.70
2018-04-07T01:24:57.880Z,61.30
2018-04-07T01:27:26.188Z,61.80
2018-04-07T01:29:53.717Z,61.80
2018-04-07T01:32:21.284Z,61.60
2018-04-07T01:34:48.811Z,61.40
2018-04-07T01:37:16.344Z,62.20
2018-04-07T01:39:43.865Z,61.90
2018-04-07T01:42:12.232Z,62.00
2018-04-07T01:44:40.517Z,62.00
2018-04-07T01:47:08.181Z,62.00
2018-04-07T01:49:35.705Z,62.10
2018-04-07T01:52:03.240Z,62.20
2018-04-07T01:54:31.353Z,62.10
2018-04-07T01:56:58.894Z,62.70
2018-04-07T01:59:26.455Z,62.30
2018-04-07T02:01:53.982Z,62.50
2018-04-07T02:04:21.607Z,62.60
2018-04-07T02:06:49.166Z,62.70
2018-04-07T02:09:16.797Z,62.80
2018-04-07T02:11:44.313Z,62.70
2018-04-07T02:14:11.853Z,62.90
2018-04-07T02:16:39.368Z,62.90
2018-04-07T02:19:07.793Z,63.50
2018-04-07T02:21:35.333Z,63.30
2018-04-07T02:24:02.991Z,63.20
2018-04-07T02:26:30.503Z,63.20
2018-04-07T02:28:58.050Z,63.00
2018-04-07T02:31:25.574Z,63.00
2018-04-07T02:33:53.113Z,63.10
2018-04-07T02:36:21.522Z,62.90
2018-04-07T02:38:49.061Z,62.80
2018-04-07T02:41:16.600Z,63.10
2018-04-07T02:43:44.211Z,63.30
2018-04-07T02:46:11.732Z,63.70
2018-04-07T02:48:39.272Z,63.40
2018-04-07T02:51:06.894Z,63.80
2018-04-07T02:53:34.478Z,63.60
2018-04-07T02:56:02.190Z,63.70
2018-04-07T02:58:29.737Z,63.50
2018-04-07T03:00:57.265Z,63.80
2018-04-07T03:03:24.817Z,63.80
2018-04-07T03:05:53.326Z,64.30
2018-04-07T03:08:21.639Z,65.00
2018-04-07T03:10:49.155Z,64.60
2018-04-07T03:13:17.436Z,64.90
2018-04-07T03:15:44.962Z,64.90
2018-04-07T03:18:12.496Z,65.10
2018-04-07T03:20:41.009Z,65.00
2018-04-07T03:23:08.531Z,64.90
2018-04-07T03:25:36.066Z,65.00
2018-04-07T03:28:03.641Z,65.20
2018-04-07T03:30:31.183Z,65.30
2018-04-07T03:32:58.703Z,65.20
2018-04-07T03:35:26.266Z,65.40
2018-04-07T03:37:53.791Z,65.50
2018-04-07T03:40:21.352Z,65.30
2018-04-07T03:42:48.893Z,65.30
2018-04-07T03:45:16.453Z,65.20
2018-04-07T03:47:43.974Z,65.30
2018-04-07T03:50:11.651Z,65.40
2018-04-07T03:52:39.180Z,65.30
2018-04-07T03:55:06.739Z,65.10
2018-04-07T03:57:35.382Z,65.00
2018-04-07T04:00:02.926Z,65.00
2018-04-07T04:02:30.448Z,65.20
2018-04-07T04:04:57.980Z,65.10
2018-04-07T04:07:26.290Z,65.10
2018-04-07T04:09:53.853Z,65.10
2018-04-07T04:12:21.383Z,64.80
2018-04-07T04:14:48.922Z,64.50
2018-04-07T04:17:16.445Z,64.50
2018-04-07T04:19:43.983Z,64.60
2018-04-07T04:22:11.513Z,64.40
2018-04-07T04:24:39.145Z,63.90
2018-04-07T04:27:06.648Z,63.70
2018-04-07T04:29:35.101Z,63.50
2018-04-07T04:32:03.391Z,63.20
2018-04-07T04:34:31.071Z,63.60
2018-04-07T04:36:59.387Z,63.30
2018-04-07T04:39:26.907Z,63.30
2018-04-07T04:41:54.449Z,63.30
2018-04-07T04:44:21.970Z,63.10
2018-04-07T04:46:50.277Z,62.60
2018-04-07T04:49:17.862Z,62.60
2018-04-07T04:51:45.406Z,62.60
2018-04-07T04:54:12.933Z,62.40
2018-04-07T04:56:40.661Z,62.20
2018-04-07T04:59:08.201Z,62.10
2018-04-07T05:01:36.751Z,62.00
2018-04-07T05:04:04.269Z,62.00
2018-04-07T05:06:32.581Z,61.20
2018-04-07T05:09:00.126Z,61.20
2018-04-07T05:11:27.688Z,61.50
2018-04-07T05:13:56.054Z,60.70
2018-04-07T05:16:23.639Z,60.60
2018-04-07T05:18:51.222Z,60.50
2018-04-07T05:21:18.761Z,60.30
2018-04-07T05:23:46.413Z,60.20
2018-04-07T05:26:14.060Z,59.90
2018-04-07T05:28:41.586Z,59.60
2018-04-07T05:31:09.309Z,59.10
2018-04-07T05:33:36.889Z,58.70
2018-04-07T05:36:04.545Z,58.20
2018-04-07T05:38:32.061Z,58.20
2018-04-07T05:40:59.741Z,58.10
2018-04-07T05:43:27.252Z,57.60
2018-04-07T05:45:54.846Z,57.40
2018-04-07T05:48:22.470Z,57.10
2018-04-07T05:50:49.996Z,57.10
2018-04-07T05:53:17.524Z,56.80
2018-04-07T05:55:45.049Z,56.30
2018-04-07T05:58:13.405Z,55.90
2018-04-07T06:00:41.725Z,56.30
2018-04-07T06:03:09.272Z,55.80
2018-04-07T06:05:37.011Z,55.70
2018-04-07T06:08:04.563Z,55.10
2018-04-07T06:10:32.104Z,54.90
2018-04-07T06:12:59.645Z,54.70
2018-04-07T06:15:27.279Z,54.00
2018-04-07T06:17:54.816Z,53.80
2018-04-07T06:20:22.343Z,53.60
2018-04-07T06:22:50.714Z,53.00
2018-04-07T06:25:19.713Z,52.60
2018-04-07T06:27:47.480Z,52.60
2018-04-07T06:30:15.229Z,52.50
2018-04-07T06:32:42.761Z,52.10
2018-04-07T06:35:10.281Z,52.10
2018-04-07T06:37:38.174Z,51.70
2018-04-07T06:40:05.705Z,51.90
2018-04-07T06:42:33.285Z,51.10
2018-04-07T06:45:00.797Z,51.10
2018-04-07T06:47:28.453Z,50.30
2018-04-07T06:49:55.996Z,50.50
2018-04-07T06:52:23.542Z,50.40
2018-04-07T06:54:51.069Z,49.90
2018-04-07T06:57:18.590Z,50.00
2018-04-07T06:59:46.130Z,49.30
2018-04-07T07:02:13.657Z,49.50
2018-04-07T07:04:41.953Z,48.30
2018-04-07T07:07:09.478Z,48.20
2018-04-07T07:09:37.056Z,47.90
2018-04-07T07:12:04.598Z,47.70
2018-04-07T07:14:32.133Z,47.40
2018-04-07T07:16:59.647Z,47.20
2018-04-07T07:19:27.957Z,46.00
2018-04-07T07:21:55.529Z,46.00
2018-04-07T07:24:23.072Z,45.70
2018-04-07T07:26:50.612Z,44.90
2018-04-07T07:29:18.176Z,44.40
2018-04-07T07:31:46.477Z,42.20
2018-04-07T07:34:14.027Z,42.20
2018-04-07T07:36:41.551Z,41.10
2018-04-07T07:39:09.129Z,40.80
2018-04-07T07:41:36.641Z,40.70
2018-04-07T07:44:04.322Z,40.30
2018-04-07T07:46:31.842Z,39.80
2018-04-07T07:48:59.393Z,38.50
2018-04-07T07:51:26.915Z,38.40
2018-04-07T07:53:55.214Z,37.20
2018-04-07T07:56:22.746Z,37.10
2018-04-07T07:58:50.322Z,37.20
2018-04-07T08:01:17.946Z,37.00
2018-04-07T08:03:45.505Z,36.30
2018-04-07T08:06:13.140Z,36.50
2018-04-07T08:08:40.662Z,35.60
2018-04-07T08:11:08.206Z,35.40
2018-04-07T08:13:35.722Z,35.60
2018-04-07T08:16:04.044Z,35.00
2018-04-07T08:18:31.556Z,34.90
2018-04-07T08:20:59.106Z,34.80
2018-04-07T08:23:26.652Z,34.20
2018-04-07T08:25:54.215Z,34.20
2018-04-07T08:28:21.764Z,32.60
2018-04-07T08:30:49.407Z,32.80
2018-04-07T08:33:16.943Z,32.40
2018-04-07T08:35:44.500Z,32.40
2018-04-07T08:38:12.038Z,32.50
2018-04-07T08:40:39.576Z,32.70
2018-04-07T08:43:07.097Z,32.50
2018-04-07T08:45:34.631Z,32.10
2018-04-07T08:48:03.032Z,31.80
2018-04-07T08:50:30.604Z,31.80
2018-04-07T08:52:58.899Z,31.20
2018-04-07T08:55:27.209Z,31.30
2018-04-07T08:57:54.825Z,31.30
2018-04-07T09:00:22.353Z,31.50
2018-04-07T09:02:50.640Z,31.10
2018-04-07T09:05:18.213Z,31.20
2018-04-07T09:07:45.753Z,30.90
2018-04-07T09:10:13.301Z,31.20
2018-04-07T09:12:41.752Z,30.40
2018-04-07T09:15:09.448Z,30.20
2018-04-07T09:17:37.749Z,30.50
2018-04-07T09:20:05.285Z,30.50
2018-04-07T09:22:32.823Z,30.40
2018-04-07T09:25:00.370Z,29.60
2018-04-07T09:27:27.893Z,29.70
2018-04-07T09:29:56.304Z,29.90
2018-04-07T09:32:23.841Z,29.90
2018-04-07T09:34:51.434Z,29.90
2018-04-07T09:37:18.977Z,29.90
2018-04-07T09:39:46.491Z,29.50
2018-04-07T09:42:14.049Z,29.50
2018-04-07T09:44:41.572Z,29.20
2018-04-07T09:47:09.096Z,29.10
2018-04-07T09:49:36.633Z,28.80
2018-04-07T09:52:04.198Z,28.30
2018-04-07T09:54:31.753Z,28.00
2018-04-07T09:56:59.345Z,27.90
2018-04-07T09:59:27.637Z,28.70
2018-04-07T10:01:59.128Z,28.70
2018-04-07T10:04:26.665Z,28.20
2018-04-07T10:06:54.215Z,27.90
2018-04-07T10:09:21.764Z,27.50
2018-04-07T10:11:50.081Z,28.00
2018-04-07T10:14:17.623Z,28.00
2018-04-07T10:16:45.166Z,27.90
2018-04-07T10:19:12.690Z,28.00
2018-04-07T10:21:40.235Z,28.20
2018-04-07T10:24:07.827Z,27.90
2018-04-07T10:26:35.478Z,28.10
2018-04-07T10:29:03.023Z,28.40
2018-04-07T10:31:30.649Z,28.00
2018-04-07T10:33:58.280Z,28.00
2018-04-07T10:36:26.954Z,27.90
2018-04-07T10:38:54.745Z,28.30
2018-04-07T10:41:22.301Z,27.80
2018-04-07T10:43:50.688Z,27.80
2018-04-07T10:46:18.252Z,27.80
2018-04-07T10:48:45.812Z,28.00
2018-04-07T10:51:13.368Z,28.00
2018-04-07T10:53:41.002Z,28.30
2018-04-07T10:56:08.571Z,28.40
2018-04-07T10:58:36.099Z,28.30
2018-04-07T11:01:03.652Z,28.10
2018-04-07T11:03:31.962Z,28.20
2018-04-07T11:05:59.538Z,28.20
2018-04-07T11:08:27.073Z,28.10
2018-04-07T11:10:54.614Z,28.20
2018-04-07T11:13:22.203Z,28.10
2018-04-07T11:15:49.928Z,28.00
2018-04-07T11:18:17.475Z,27.90
2018-04-07T11:20:46.024Z,27.60
2018-04-07T11:23:13.619Z,27.50
2018-04-07T11:25:41.144Z,27.60
2018-04-07T11:28:08.680Z,27.40
2018-04-07T11:30:36.857Z,27.50
2018-04-07T11:33:04.496Z,27.60
2018-04-07T11:35:32.015Z,27.40
2018-04-07T11:37:59.548Z,27.80
2018-04-07T11:40:27.113Z,27.60
2018-04-07T11:42:54.639Z,27.50
2018-04-07T11:45:22.160Z,27.50
2018-04-07T11:47:50.474Z,27.90
2018-04-07T11:50:18.048Z,27.90
2018-04-07T11:52:46.757Z,27.90
2018-04-07T11:55:14.971Z,28.00
2018-04-07T11:57:44.937Z,27.80
2018-04-07T12:00:12.485Z,28.20
2018-04-07T12:02:40.184Z,27.60
2018-04-07T12:05:07.706Z,28.00
2018-04-07T12:07:35.835Z,28.70
2018-04-07T12:10:03.689Z,28.10
2018-04-07T12:12:31.234Z,28.40
2018-04-07T12:14:58.782Z,28.80
2018-04-07T12:17:26.341Z,28.20
2018-04-07T12:19:53.957Z,28.10
2018-04-07T12:22:21.533Z,28.00
2018-04-07T12:24:49.849Z,27.20
2018-04-07T12:27:17.454Z,27.20
2018-04-07T12:29:44.980Z,27.20
2018-04-07T12:32:12.534Z,27.50
2018-04-07T12:34:40.377Z,27.60
2018-04-07T12:37:08.244Z,27.40
2018-04-07T12:39:36.564Z,27.30
2018-04-07T12:42:04.119Z,27.20
2018-04-07T12:44:31.641Z,27.40
2018-04-07T12:46:59.211Z,27.10
2018-04-07T12:49:26.786Z,27.10
2018-04-07T12:51:54.401Z,27.30
2018-04-07T12:54:21.915Z,27.20
2018-04-07T12:56:49.457Z,27.40
2018-04-07T12:59:16.975Z,27.50
2018-04-07T13:01:45.330Z,27.00
2018-04-07T13:04:13.682Z,27.20
2018-04-07T13:06:41.231Z,27.20
2018-04-07T13:09:08.959Z,27.30
2018-04-07T13:11:36.596Z,26.90
2018-04-07T13:14:04.169Z,26.80
2018-04-07T13:16:31.750Z,26.80
2018-04-07T13:18:59.467Z,27.30
2018-04-07T13:21:27.831Z,26.70
2018-04-07T13:23:55.807Z,26.70
2018-04-07T13:26:23.504Z,27.00
2018-04-07T13:28:51.062Z,27.00
2018-04-07T13:31:18.685Z,26.90
2018-04-07T13:33:46.240Z,26.70
2018-04-07T13:36:13.775Z,27.00
2018-04-07T13:38:41.468Z,27.00
2018-04-07T13:41:10.008Z,27.00
2018-04-07T13:43:37.914Z,27.00
2018-04-07T13:46:05.711Z,26.80
2018-04-07T13:48:33.298Z,26.70
2018-04-07T13:51:02.057Z,26.80
2018-04-07T13:53:30.397Z,26.70
2018-04-07T13:55:57.926Z,26.70
2018-04-07T13:58:25.473Z,26.90
2018-04-07T14:00:53.002Z,26.60
2018-04-07T14:03:20.543Z,26.40
2018-04-07T14:05:49.180Z,26.60
2018-04-07T14:08:16.798Z,26.40
2018-04-07T14:10:44.525Z,26.20
2018-04-07T14:13:12.840Z,26.10
2018-04-07T14:15:40.403Z,26.20
2018-04-07T14:18:07.983Z,26.40
2018-04-07T14:20:35.833Z,26.20
2018-04-07T14:23:03.417Z,26.20
2018-04-07T14:25:31.733Z,26.40
2018-04-07T14:27:59.293Z,26.40
2018-04-07T14:30:27.649Z,26.00
2018-04-07T14:32:55.220Z,26.00
2018-04-07T14:35:22.899Z,26.20
2018-04-07T14:37:50.509Z,26.40
2018-04-07T14:40:18.089Z,26.00
2018-04-07T14:42:45.675Z,26.00
2018-04-07T14:45:13.208Z,25.80
2018-04-07T14:47:40.806Z,25.70
2018-04-07T14:50:08.538Z,25.80
2018-04-07T14:52:36.361Z,25.80
2018-04-07T14:55:03.904Z,25.80
2018-04-07T14:57:31.431Z,26.10
2018-04-07T14:59:58.975Z,25.90
2018-04-07T15:02:26.678Z,26.40
2018-04-07T15:04:55.015Z,26.10
2018-04-07T15:07:22.530Z,26.00
2018-04-07T15:09:50.520Z,25.90
2018-04-07T15:12:18.464Z,26.00
2018-04-07T15:14:47.169Z,25.90
2018-04-07T15:17:14.736Z,25.90
2018-04-07T15:19:43.107Z,26.00
2018-04-07T15:22:11.384Z,26.00
2018-04-07T15:24:38.964Z,25.90
2018-04-07T15:27:06.571Z,25.80
2018-04-07T15:29:34.207Z,25.60
2018-04-07T15:32:01.767Z,25.60
2018-04-07T15:34:29.445Z,25.70
2018-04-07T15:36:57.793Z,25.70
2018-04-07T15:39:25.334Z,25.60
2018-04-07T15:41:52.937Z,25.50
2018-04-07T15:44:20.538Z,25.50
2018-04-07T15:46:48.093Z,25.40
2018-04-07T15:49:15.679Z,24.90
2018-04-07T15:51:43.269Z,24.00
2018-04-07T15:54:11.007Z,23.40
2018-04-07T15:56:38.990Z,22.60
2018-04-07T15:59:06.547Z,22.30
2018-04-07T16:01:34.117Z,21.60
2018-04-07T16:04:01.755Z,21.50
2018-04-07T16:06:29.484Z,21.00
2018-04-07T16:08:57.022Z,20.80
2018-04-07T16:11:24.658Z,20.60
2018-04-07T16:13:53.115Z,20.40
2018-04-07T16:16:20.676Z,19.90
2018-04-07T16:18:48.232Z,20.10
2018-04-07T16:21:16.603Z,19.80
2018-04-07T16:23:44.900Z,19.70
2018-04-07T16:26:12.447Z,19.70
2018-04-07T16:28:40.197Z,19.70
2018-04-07T16:31:07.869Z,19.70
2018-04-07T16:33:35.477Z,19.80
2018-04-07T16:36:03.151Z,19.50
2018-04-07T16:38:30.699Z,19.20
2018-04-07T16:40:58.271Z,19.10
2018-04-07T16:43:25.809Z,19.00
2018-04-07T16:45:53.351Z,19.10
2018-04-07T16:48:20.894Z,19.00
2018-04-07T16:50:49.233Z,19.00
2018-04-07T16:53:16.784Z,19.00
2018-04-07T16:55:44.339Z,20.00
2018-04-07T16:58:11.966Z,20.90
2018-04-07T17:00:40.481Z,22.00
2018-04-07T17:03:08.823Z,21.80
2018-04-07T17:05:36.502Z,21.80
2018-04-07T17:08:04.866Z,21.00
2018-04-07T17:10:33.153Z,20.70
2018-04-07T17:13:00.726Z,20.60
2018-04-07T17:15:28.477Z,20.60
2018-04-07T17:17:56.072Z,20.80
2018-04-07T17:20:24.367Z,21.80
2018-04-07T17:22:51.936Z,21.80
2018-04-07T17:25:19.564Z,22.10
2018-04-07T17:27:47.163Z,22.40
2018-04-07T17:30:15.474Z,22.90
2018-04-07T17:32:43.053Z,22.90
2018-04-07T17:35:10.598Z,23.20
2018-04-07T17:37:38.173Z,24.10
2018-04-07T17:40:05.750Z,24.90
2018-04-07T17:42:33.991Z,25.50
2018-04-07T17:45:01.518Z,26.10
2018-04-07T17:47:29.832Z,27.10
2018-04-07T17:49:57.380Z,27.10
2018-04-07T17:52:24.926Z,27.60
2018-04-07T17:54:52.465Z,28.40
2018-04-07T17:57:20.037Z,28.60
2018-04-07T17:59:47.587Z,29.40
2018-04-07T18:02:16.321Z,30.20
2018-04-07T18:04:43.858Z,30.20
2018-04-07T18:07:11.426Z,30.90
2018-04-07T18:09:38.981Z,31.10
2018-04-07T18:12:06.566Z,31.80
2018-04-07T18:14:34.103Z,32.50
2018-04-07T18:17:01.640Z,32.60
2018-04-07T18:19:29.953Z,32.90
2018-04-07T18:21:57.569Z,32.90
2018-04-07T18:24:25.159Z,33.60
2018-04-07T18:26:53.091Z,33.80
2018-04-07T18:29:20.685Z,33.90
2018-04-07T18:31:48.296Z,34.30
2018-04-07T18:34:16.350Z,34.80
2018-04-07T18:36:43.963Z,34.70
2018-04-07T18:39:11.586Z,35.20
2018-04-07T18:41:39.496Z,35.50
2018-04-07T18:44:07.159Z,36.30
2018-04-07T18:46:35.505Z,36.50
2018-04-07T18:49:03.049Z,36.40
2018-04-07T18:51:30.685Z,37.00
2018-04-07T18:53:58.652Z,36.90
2018-04-07T18:56:26.196Z,36.90
2018-04-07T18:58:53.772Z,37.30
2018-04-07T19:01:22.142Z,37.60
2018-04-07T19:03:49.716Z,37.60
2018-04-07T19:06:17.286Z,37.90
2018-04-07T19:08:44.885Z,38.10
2018-04-07T19:11:12.433Z,38.50
2018-04-07T19:13:40.119Z,38.50
2018-04-07T19:16:07.846Z,39.00
2018-04-07T19:18:35.440Z,39.20
2018-04-07T19:21:03.955Z,39.60
2018-04-07T19:23:31.501Z,39.80
2018-04-07T19:25:59.440Z,40.00
2018-04-07T19:28:26.985Z,40.00
2018-04-07T19:30:54.587Z,40.40
2018-04-07T19:33:22.168Z,40.60
2018-04-07T19:35:50.478Z,40.80
2018-04-07T19:38:18.105Z,40.80
2018-04-07T19:40:45.846Z,40.80
2018-04-07T19:43:13.407Z,40.90
2018-04-07T19:45:41.323Z,41.10
2018-04-07T19:48:08.889Z,41.20
2018-04-07T19:50:36.441Z,41.30
2018-04-07T19:53:04.016Z,41.60
2018-04-07T19:55:31.962Z,41.70
2018-04-07T19:57:59.695Z,42.00
2018-04-07T20:00:27.290Z,42.40
2018-04-07T20:02:55.668Z,43.30
2018-04-07T20:05:23.272Z,43.30
2018-04-07T20:07:50.804Z,43.60
2018-04-07T20:10:18.449Z,43.70
2018-04-07T20:12:45.998Z,44.30
2018-04-07T20:15:13.562Z,44.80
2018-04-07T20:17:41.102Z,45.30
2018-04-07T20:20:08.661Z,45.20
2018-04-07T20:22:36.253Z,45.70
2018-04-07T20:25:04.136Z,45.70
2018-04-07T20:27:31.668Z,46.20
2018-04-07T20:29:59.374Z,46.70
2018-04-07T20:32:26.943Z,46.90
2018-04-07T20:34:54.471Z,47.40
2018-04-07T20:37:22.013Z,47.40
2018-04-07T20:39:49.802Z,47.80
2018-04-07T20:42:27.153Z,48.10
2018-04-07T20:44:54.821Z,48.50
2018-04-07T20:47:23.273Z,48.80
2018-04-07T20:49:50.868Z,49.20
2018-04-07T20:52:19.219Z,49.80
2018-04-07T20:54:47.767Z,49.80
2018-04-07T20:57:15.344Z,49.90
2018-04-07T20:59:43.974Z,50.90
2018-04-07T21:02:13.695Z,50.90
2018-04-07T21:04:41.387Z,51.10
2018-04-07T21:07:09.408Z,51.60
2018-04-07T21:09:37.371Z,52.10
2018-04-07T21:12:06.057Z,52.60
2018-04-07T21:14:34.445Z,53.60
2018-04-07T21:17:02.256Z,53.50
2018-04-07T21:19:30.089Z,53.60
2018-04-07T21:21:57.733Z,53.80
2018-04-07T21:24:25.280Z,54.50
2018-04-07T21:26:53.830Z,54.60
2018-04-07T21:29:21.453Z,54.50
2018-04-07T21:31:49.084Z,55.70
2018-04-07T21:34:16.764Z,55.50
2018-04-07T21:36:44.304Z,55.30
2018-04-07T21:39:11.844Z,55.70
2018-04-07T21:41:39.477Z,56.00
2018-04-07T21:44:07.018Z,56.10
2018-04-07T21:46:34.574Z,56.40
2018-04-07T21:49:02.140Z,56.60
2018-04-07T21:51:29.836Z,56.90
2018-04-07T21:53:57.674Z,57.40
2018-04-07T21:56:25.997Z,57.80
2018-04-07T21:58:53.562Z,57.80
2018-04-07T22:01:21.094Z,58.20
2018-04-07T22:03:48.732Z,58.30
2018-04-07T22:06:16.279Z,58.40
2018-04-07T22:08:43.818Z,58.70
2018-04-07T22:11:11.360Z,58.60
2018-04-07T22:13:38.925Z,59.00
2018-04-07T22:16:06.474Z,59.30
2018-04-07T22:18:34.123Z,59.30
2018-04-07T22:21:01.668Z,59.50
2018-04-07T22:23:29.217Z,59.60
2018-04-07T22:25:56.752Z,60.10
2018-04-07T22:28:24.365Z,60.20
2018-04-07T22:30:51.903Z,60.40
2018-04-07T22:33:19.536Z,60.50
2018-04-07T22:35:47.356Z,60.90
2018-04-07T22:38:14.921Z,60.80
2018-04-07T22:40:42.451Z,61.40
2018-04-07T22:43:09.993Z,61.60
2018-04-07T22:45:37.638Z,61.80
2018-04-07T22:48:05.952Z,62.20
2018-04-07T22:50:33.507Z,62.20
2018-04-07T22:53:01.470Z,62.40
2018-04-07T22:55:30.849Z,63.00
2018-04-07T22:57:58.451Z,62.80
2018-04-07T23:00:26.006Z,63.00
2018-04-07T23:02:53.583Z,63.30
2018-04-07T23:05:21.134Z,63.40
2018-04-07T23:07:48.674Z,63.60
2018-04-07T23:10:16.250Z,63.60
2018-04-07T23:12:43.803Z,63.70
2018-04-07T23:15:12.225Z,64.20
2018-04-07T23:17:39.754Z,63.50
2018-04-07T23:20:07.366Z,63.70
2018-04-07T23:22:35.698Z,63.70
2018-04-07T23:25:03.309Z,63.60
2018-04-07T23:27:30.811Z,63.80
2018-04-07T23:29:58.361Z,64.10
2018-04-07T23:32:26.662Z,64.50
2018-04-07T23:34:54.240Z,64.50
2018-04-07T23:37:23.375Z,65.00
2018-04-07T23:39:51.056Z,64.90
2018-04-07T23:42:18.592Z,65.20
2018-04-07T23:44:46.185Z,65.30
2018-04-07T23:47:14.909Z,65.50
2018-04-07T23:49:42.454Z,65.50
2018-04-07T23:52:10.002Z,65.50
2018-04-07T23:54:37.625Z,65.90
2018-04-07T23:57:05.606Z,65.80
2018-04-07T23:59:33.161Z,65.80
